Slide Mountain Weather observations

Data are for 10 minute period ending at time listed.
 Day   Time   Solar   Ave.   Ave.  Ave.  Vector  Max.    Baro.  
  of    of     Rad.   Air    Rel.  Wind   Wind   Wind   Press.  
Year   Day            Temp.  Hum.  Speed  Dir.   Gust           
2018   (PST)  Kw/m2    F      %     mph   deg.    mph     mb.   
-----------------------------------------------------------------
 198   21:30   0.00   61.9    12   12.9   253     21.8    722.7 
 198   21:40   0.00   62.3    10   12.8   252     22.0    722.7 
 198   21:50   0.00   62.5    10   11.6   248     21.8    722.7 
 198   22:00   0.00   62.5     9   12.2   251     20.6    722.7 
 198   22:10   0.00   62.7     8   10.5   251     18.5    722.8 
 198   22:20   0.00   62.5     8    5.4   248     11.1    722.9 
 198   22:30   0.00   62.6     7    7.0   247     13.9    722.9 
 198   22:40   0.00   62.7     7    6.4   247     12.7    722.9 
 198   22:50   0.00   62.5     7    5.9   242     11.1    722.9 
 198   23:00   0.00   62.6     7    7.6   249     13.9    723.0 
 198   23:10   0.00   63.2     6    8.0   244     17.3    722.9 
 198   23:20   0.00   63.3     6    7.1   239     14.1    722.9 
 198   23:30   0.00   63.2     6    5.1   239     12.4    722.9 
 198   23:40   0.00   63.4     5    5.0   247     10.8    723.0 
 198   23:50   0.00   63.4     5    3.6   246      8.4    723.1 
 199    0:00   0.00   63.8     5    4.5   254      9.7    723.1 
 199    0:10   0.00   64.3     5    3.6   256      8.7    723.1 
 199    0:20   0.00   64.2     5    1.2   252      4.3    723.1 
 199    0:30   0.00   63.7     6   -0.0    73      0.0    723.1 
 199    0:40   0.00   62.6     8    0.4   254      3.2    723.1 
 199    0:50   0.00   62.7     8    0.3   254      1.9    723.1 
 199    1:00   0.00   62.4     8    2.5   200      5.2    723.0 
 199    1:10   0.00   62.2     9    0.9   186      3.2    723.0 
 199    1:20   0.00   62.1     9    0.7   186      6.1    723.0 
 199    1:30   0.00   61.9    11    2.2   184      5.8    722.9 
 199    1:40   0.00   61.5    12    1.8   181      4.0    722.9 
 199    1:50   0.00   61.3    13    2.0   181      4.1    722.9 
 199    2:00   0.00   61.1    14    0.8   181      2.6    722.9 
 199    2:10   0.00   60.9    15    0.9   181      2.6    722.8 
 199    2:20   0.00   60.4    17    0.1   181      2.1    722.8 
 199    2:30   0.00   60.0    18    0.0     0      0.0    722.8 
 199    2:40   0.00   59.6    23   -0.0     1      0.0    722.7 
 199    2:50   0.00   60.1    17   -0.0     1      0.0    722.7 
 199    3:00   0.00   60.5    14   -0.0     1      0.4    722.7 
 199    3:10   0.00   60.8    14    2.2   181      5.8    722.8 
 199    3:20   0.00   60.4    15    3.1   181      5.7    722.8 
 199    3:30   0.00   59.7    16    3.2   181      6.1    722.7 
 199    3:40   0.00   59.0    15    2.0   187      4.6    722.7 
 199    3:50   0.00   58.7    13    2.2   200      5.2    722.7 
 199    4:00   0.00   58.7    12    3.3   212      7.0    722.7 
 199    4:10   0.00   58.5    12    4.1   216      8.2    722.7 
 199    4:20   0.00   58.5    11    4.7   218      8.6    722.7 
 199    4:30   0.00   58.4    11    5.0   220     10.2    722.7 
 199    4:40   0.00   58.4    10    5.2   222      9.0    722.7 
 199    4:50   0.00   58.7     9    5.0   224      9.0    722.7 
 199    5:00   0.01   59.3     8    4.3   221      8.4    722.8 
 199    5:10   0.02   59.6     8    4.8   229      9.0    722.8 
 199    5:20   0.04   59.9     9    4.3   223      8.0    722.8 
 199    5:30   0.07   60.0     9    4.4   223      9.3    722.8 
 199    5:40   0.10   59.9     8    6.2   227     11.7    722.8 
 199    5:50   0.13   60.1     8    7.0   233     12.4    722.8 
 199    6:00   0.16   60.1     8    6.4   236     13.0    722.8 
 199    6:10   0.18   60.3     8    5.7   232     10.5    722.8 
 199    6:20   0.21   60.3     8    4.8   230      8.4    722.9 
 199    6:30   0.24   60.3     9    6.0   235     11.7    722.8 
 199    6:40   0.26   60.6     8    7.1   240     13.3    722.8 
 199    6:50   0.29   61.1     7    6.7   242     13.1    722.8 
 199    7:00   0.32   61.5     8    5.7   241     11.3    722.8 
 199    7:10   0.35   62.4     8    5.3   240     10.9    722.9 
 199    7:20   0.38   63.1     9    3.9   236      9.7    723.0 
 199    7:30   0.41   63.4    10    2.3   236      5.9    723.0 
 199    7:40   0.43   63.7    11    2.5   236      6.3    723.1 
 199    7:50   0.46   63.7    12    3.2   241      7.3    723.1 
 199    8:00   0.49   63.8    12    3.8   240      8.6    723.1 
 199    8:10   0.52   63.9    13    4.0   244      8.7    723.2 
 199    8:20   0.54   64.5    13    3.6   240      7.7    723.2 
 199    8:30   0.57   65.2    14    3.2   237      7.7    723.2 
 199    8:40   0.59   65.7    14    3.9   237      8.0    723.1 
 199    8:50   0.61   65.9    17    3.1   235      7.9    723.2 
 199    9:00   0.64   66.4    15    3.4   245      7.7    723.2 
 199    9:10   0.66   66.7    16    3.8   243      9.0    723.2 
 199    9:20   0.69   66.6    16    4.5   243     10.1    723.2 
 199    9:30   0.71   67.0    17    4.9   243     11.6    723.3 
 199    9:40   0.72   67.2    18    4.3   237      9.8    723.3 
 199    9:50   0.74   67.9    19    2.4   226      7.2    723.4 
 199   10:00   0.76   68.6    16    3.7   234      9.8    723.5 
 199   10:10   0.78   69.1    15    3.9   237     10.9    723.5 
 199   10:20   0.79   68.5    16    3.3   235     10.2    723.5 
 199   10:30   0.81   69.6    14    4.0   215     10.5    723.6 
 199   10:40   0.82   70.1    13    3.3   219      9.2    723.6 
 199   10:50   0.83   69.5    11    3.6   238     11.0    723.7 
 199   11:00   0.84   69.6    12    4.1   236     11.7    723.6 
 199   11:10   0.85   69.0    14    5.4   241     13.2    723.6 
 199   11:20   0.87   69.3    16    5.1   243     14.3    723.6 
 199   11:30   0.87   69.8    17    5.5   252     13.0    723.5 
 199   11:40   0.89   71.2    19    3.6   265     11.9    723.5 
 199   11:50   0.86   72.1    17    2.7   254      7.9    723.6 
 199   12:00   0.89   71.6    17    4.1   238     12.3    723.6 
 199   12:10   0.85   71.6    17    3.9   254     11.9    723.5 
 199   12:20   0.77   71.9    17    3.3   269     11.7    723.5 
 199   12:30   0.71   72.1    17    2.2   263      7.9    723.5 
 199   12:40   0.83   72.6    18    2.4   234      9.0    723.6 
 199   12:50   0.82   73.3    18    2.5   247      7.7    723.6 
 199   13:00   0.85   73.8    19    2.0   236     10.1    723.5 
 199   13:10   0.79   73.5    19    3.4   256     12.6    723.5 
 199   13:20   0.72   72.4    20    4.2   241     11.3    723.5 
 199   13:30   0.73   72.0    20    3.1   245     11.4    723.4 
 199   13:40   0.76   72.8    19    3.1   242      9.2    723.4 
 199   13:50   0.79   73.9    16    3.5   249      9.2    723.3 
 199   14:00   0.80   74.5    17    3.5   251      9.9    723.3 
 199   14:10   0.78   74.2    15    4.4   246     10.9    723.2 
 199   14:20   0.75   74.3    16    4.0   249     11.7    723.2 
 199   14:30   0.63   72.9    18    5.6   250     14.1    723.2 
 199   14:40   0.64   72.6    17    5.2   244     12.8    723.1 
 199   14:50   0.58   72.4    16    6.1   245     12.8    723.1 
 199   15:00   0.72   73.2    14    6.0   252     12.0    723.1 
 199   15:10   0.63   73.5    17    4.7   242     10.8    723.0 
 199   15:20   0.65   73.5    17    5.3   242     13.7    723.0 
 199   15:30   0.59   73.2    16    7.0   250     16.7    722.9 
 199   15:40   0.60   73.3    19    5.2   246     11.9    722.9 
 199   15:50   0.58   72.6    19    6.6   249     13.9    722.9 
 199   16:00   0.56   72.3    19    6.5   246     14.6    722.8 
 199   16:10   0.53   72.4    20    6.8   249     16.7    722.8 
 199   16:20   0.50   71.6    21    7.1   238     15.3    722.8 
 199   16:30   0.47   71.6    21    7.7   241     18.6    722.8 
 199   16:40   0.44   71.7    21    6.8   243     14.6    722.7 
 199   16:50   0.41   72.0    20    6.7   246     16.4    722.7 
 199   17:00   0.40   71.7    22    7.2   240     15.9    722.6 
 199   17:10   0.37   71.0    21    7.8   246     16.7    722.6 
 199   17:20   0.35   70.7    20    8.1   248     17.7    722.6 
 199   17:30   0.32   70.4    19    6.8   250     14.6    722.5 
 199   17:40   0.28   70.5    20    5.5   244     12.0    722.6 
 199   17:50   0.25   70.4    19    5.7   251     14.8    722.6 
 199   18:00   0.22   69.5    22    6.0   242     13.5    722.7 
 199   18:10   0.20   68.7    24    6.3   242     12.8    722.7 
 199   18:20   0.17   68.0    26    6.5   254     15.7    722.6 
 199   18:30   0.14   67.4    29    5.8   253     11.2    722.6 
 199   18:40   0.12   66.5    29    6.8   251     14.5    722.6 
 199   18:50   0.08   65.9    28    6.1   259     14.3    722.6 
 199   19:00   0.05   65.2    29    6.2   262     12.1    722.6 
 199   19:10   0.02   64.0    29    6.3   270     11.6    722.6 
 199   19:20   0.01   63.2    29    6.1   273     12.0    722.6 
 199   19:30   0.00   62.9    28    7.6   275     13.4    722.6 
 199   19:40   0.00   62.7    28    6.1   283     13.8    722.6 
 199   19:50   0.00   62.7    28    7.6   293     15.9    722.6 
 199   20:00   0.00   62.5    28    9.1   296     16.6    722.6 
 199   20:10   0.00   62.2    27    8.0   294     14.5    722.7 
 199   20:20   0.00   62.1    28    5.5   293     11.2    722.8 
 199   20:30   0.00   62.5    26    3.5   297      8.6    722.9 
 199   20:40   0.00   62.2    27    4.6   310      8.4    722.9 
 199   20:50   0.00   62.3    25    4.8   312      9.5    722.9 
 199   21:00   0.00   62.9    19    3.4   323      8.3    722.8 
 199   21:10   0.00   64.6    14    4.9     0      9.8    722.8 
 199   21:20   0.00   65.7    13    6.4    31     12.7    722.8 

Return to Slide Mountain graphs page.


Western Regional Climate Center,wrcc@dri.edu